Flight Track Log - Related Links

Times and Time Zones

All times are in EST time to prevent confusion due to time zone crossing. See the N45NS flight status page for this flight to view local times or setup timezone preferences in your user account.

Time Position Orientation Groundspeed Altitude Reporting Facility
EST Latitude Longitude Course Direction KTS MPH feet Rate Location/Type
Sat 07:12:28 AM 40.8378 -82.0000 246° West 215 247 6,300  Level Indianapolis Center
Sat 07:13:33 AM 40.8200 -82.0825 254° West 232 267 8,000 1,574 Climbing Cleveland Center
Sat 07:14:30 AM 40.8011 -82.1694 254° West 239 275 9,500 2,186 Climbing Indianapolis Center
Sat 07:15:31 AM 40.7817 -82.2597 254° West 248 285 12,300 2,529 Climbing Indianapolis Center
Sat 07:16:31 AM 40.7611 -82.3542 254° West 259 298 14,600 2,380 Climbing Indianapolis Center
Sat 07:17:00 AM 40.7082 -82.5922 246° West  Level FlightAware Approximate
Sat 07:17:32 AM 40.7406 -82.4506 254° West 266 306 17,100  Level Indianapolis Center
Sat 07:18:33 AM 40.7192 -82.5508 254° West 275 316 19,500 2,361 Climbing Indianapolis Center
Sat 07:19:34 AM 40.6961 -82.6536 254° West 284 327 21,900 2,410 Climbing Indianapolis Center
Sat 07:20:35 AM 40.6731 -82.7592 254° West 291 335 24,400 2,508 Climbing Indianapolis Center
Sat 07:21:36 AM 40.6492 -82.8664 254° West 297 342 27,000 2,459 Climbing Indianapolis Center
Sat 07:22:37 AM 40.6258 -82.9728 254° West 298 343 29,400 2,311 Climbing Indianapolis Center
Sat 07:23:38 AM 40.6031 -83.0769 254° West 298 343 31,700 2,164 Climbing Indianapolis Center
Sat 07:24:39 AM 40.5800 -83.1811 254° West 296 341 33,800 1,918 Climbing Indianapolis Center
Sat 07:25:40 AM 40.5578 -83.2808 254° West 290 334 35,600 1,574 Climbing Indianapolis Center
Sat 07:26:41 AM 40.5344 -83.3808 253° West 289 333 37,000 1,328 Climbing Indianapolis Center
Sat 07:27:42 AM 40.5114 -83.4825 253° West 290 334 38,300 1,279 Climbing Indianapolis Center
Sat 07:28:43 AM 40.4892 -83.5831 254° West 290 334 39,600 836 Climbing Indianapolis Center
Sat 07:29:44 AM 40.4664 -83.6806 253° West 286 329 40,000 197 Climbing Indianapolis Center
Sat 07:30:45 AM 40.4422 -83.7856 253° West 295 339 40,000  Level Indianapolis Center
Sat 07:31:46 AM 40.4167 -83.9014 254° West 325 374 40,000  Level Indianapolis Center
Sat 07:32:47 AM 40.3831 -84.0444 253° West 338 389 40,000  Level Indianapolis Center
Sat 07:33:48 AM 40.3542 -84.1672 253° West 350 403 40,000  Level Indianapolis Center
Sat 07:34:50 AM 40.3250 -84.2900 253° West 351 404 40,000  Level Indianapolis Center
Sat 07:35:51 AM 40.2958 -84.4128 253° West 353 406 40,000  Level Indianapolis Center
Sat 07:36:52 AM 40.2664 -84.5350 253° West 353 406 40,000  Level Indianapolis Center
Sat 07:37:53 AM 40.2389 -84.6578 254° West 353 406 40,000  Level Indianapolis Center
Sat 07:38:54 AM 40.2086 -84.7789 252° West 353 406 40,000  Level Indianapolis Center
Sat 07:39:55 AM 40.1756 -84.9100 252° West 353 406 40,000  Level Indianapolis Center
Sat 07:40:57 AM 40.1478 -85.0308 253° West 352 405 40,000  Level Indianapolis Center
Sat 07:41:58 AM 40.1192 -85.1531 253° West 351 404 40,000  Level Indianapolis Center
Sat 07:42:59 AM 40.0886 -85.2733 252° West 351 404 40,000  Level Indianapolis Center
Sat 07:44:00 AM 40.0589 -85.3933 252° West 351 404 40,000  Level Indianapolis Center
Sat 07:45:01 AM 40.0297 -85.5150 253° West 351 404 40,000  Level Indianapolis Center
Sat 07:46:02 AM 39.9931 -85.6597 252° West 351 404 40,000  Level Indianapolis Center
Sat 07:47:03 AM 39.9633 -85.7808 252° West 351 404 40,000  Level Indianapolis Center
Sat 07:48:05 AM 39.9333 -85.9017 252° West 351 404 40,000  Level Indianapolis Center
Sat 07:49:06 AM 39.9022 -86.0222 251° West 351 404 40,000  Level Indianapolis Center
Sat 07:50:08 AM 39.8719 -86.1422 252° West 351 404 40,000  Level Indianapolis Center
Sat 07:51:08 AM 39.8378 -86.2733 251° West 351 404 40,000  Level Indianapolis Center
Sat 07:52:09 AM 39.8075 -86.3944 252° West 351 404 40,000  Level Indianapolis Center
Sat 07:53:10 AM 39.7767 -86.5200 252° West 351 404 40,000  Level Indianapolis Center
Sat 07:54:12 AM 39.7469 -86.6422 252° West 352 405 40,000  Level Indianapolis Center
Sat 07:55:13 AM 39.7164 -86.7642 252° West 354 407 40,000  Level Indianapolis Center
Sat 07:56:14 AM 39.6867 -86.8861 252° West 354 407 40,000  Level Indianapolis Center
Sat 07:57:15 AM 39.6558 -87.0086 252° West 356 410 40,000 -49 Level Indianapolis Center
Sat 07:58:16 AM 39.6253 -87.1319 252° West 356 410 39,900 -537 Descending Indianapolis Center
Sat 07:59:18 AM 39.5931 -87.2567 252° West 361 415 38,900 -927 Descending Indianapolis Center
Sat 08:00:19 AM 39.5631 -87.3803 253° West 361 415 38,000 -934 Descending Indianapolis Center
Sat 08:01:20 AM 39.5322 -87.5011 252° West 361 415 37,000 -984 Descending Indianapolis Center
Sat 08:02:21 AM 39.4964 -87.6444 252° West 357 411 36,000 -1,415 Descending Indianapolis Center
Sat 08:03:23 AM 39.4647 -87.7619 251° West 351 404 34,100 -1,854 Descending Indianapolis Center
Sat 08:04:24 AM 39.4347 -87.8822 252° West 351 404 32,200 -1,918 Descending Indianapolis Center
Sat 08:05:25 AM 39.4022 -88.0042 251° West 353 406 30,200 -1,082 Descending Indianapolis Center
Sat 08:06:26 AM 39.3714 -88.1261 252° West 355 409 30,000 -114 Descending Indianapolis Center
Sat 08:07:10 AM 39.3439 -88.2347 252° West 369 425 30,000  Level Kansas City Center
Sat 08:08:11 AM 39.3092 -88.3625 251° West 372 428 30,000 -295 Level Kansas City Center
Sat 08:09:12 AM 39.2733 -88.4922 250° West 379 436 29,400 -1,131 Descending Kansas City Center
Sat 08:10:13 AM 39.2447 -88.6017 251° West 380 437 27,700 -1,721 Descending Kansas City Center
Sat 08:11:14 AM 39.2114 -88.7233 251° West 368 423 25,900 -2,311 Descending Kansas City Center
Sat 08:12:15 AM 39.1731 -88.8689 251° West 361 415 23,000 -3,000 Descending Kansas City Center
Sat 08:13:16 AM 39.1403 -88.9914 251° West 361 415 19,800 -2,754 Descending Kansas City Center
Sat 08:14:17 AM 39.1092 -89.1053 251° West 342 394 17,400 -2,311 Descending Kansas City Center
Sat 08:15:18 AM 39.0806 -89.2125 251° West 318 366 15,100 -2,164 Descending Kansas City Center
Sat 08:16:19 AM 39.0586 -89.3197 255° West 314 361 13,000 -1,983 Descending Kansas City Center
Sat 08:17:19 AM 39.0356 -89.4206 254° West 297 342 11,100 -1,438 Descending Kansas City Center
Sat 08:18:20 AM 39.0136 -89.5203 254° West 292 336 10,100 -541 Descending Kansas City Center
Sat 08:19:21 AM 38.9803 -89.6172 246° West 295 339 10,000 -98 Descending Kansas City Center
Sat 08:20:22 AM 38.9256 -89.6844 224° Southwest 270 311 9,900 -934 Descending Kansas City Center
Sat 08:21:23 AM 38.8683 -89.7542 224° Southwest 278 320 8,100 -1,820 Descending Kansas City Center
Sat 08:22:24 AM 38.8147 -89.8217 224° Southwest 279 321 6,200 -1,033 Descending Kansas City Center
Sat 08:23:25 AM 38.7814 -89.8931 239° Southwest 257 296 6,000 -492 Descending Kansas City Center
Sat 08:24:26 AM 38.7417 -89.9914 243° Southwest 254 292 5,200 -1,180 Descending Kansas City Center
Sat 08:25:27 AM 38.7061 -90.0722 241° Southwest 255 293 3,600 -836 Descending Kansas City Center
Sat 08:26:28 AM 38.6694 -90.1486 238° Southwest 255 293 3,500 -393 Descending Kansas City Center
Sat 08:27:29 AM 38.6856 -90.2325 284° West 251 289 2,800 -1,024 Descending Kansas City Center
Sat 08:28:31 AM 38.7175 -90.2972 302° West 224 258 1,400 -1,024 Descending Kansas City Center
Sat 08:29:32 AM 38.7375 -90.3361 303° West 162 186 700 -393 Descending Kansas City Center
Sat 08:30:33 AM 38.7561 -90.3728 303° West 155 178 600 -98 Descending Kansas City Center
Sat 08:32:00 AM 38.7487 -90.3700 165° South  Level Estimated

Login

Don't have an account? Register now (free) for customized features, flight alerts, and more!